Terminal Aerodrome Forecast
Issued by NWS

Home | Current Version | Previous Version | Text Only | Print | Product List | Glossary On
Versions: 1 2 3 4 5 6 7 8 9 10 11 12 13 14 15 16 17 18 19 20 21 22 23 24 25 26 27 28 29 30 31 32 33 34 35 36 37 38
000
FTUS45 KSLC 300520
TAFENV
TAF
KENV 300520Z 3006/3106 02008KT P6SM VCSH SCT100 BKN140
     FM300800 VRB05KT P6SM FEW100 SCT140
     FM301500 09009KT P6SM FEW100 SCT150
     FM302100 08012G18KT P6SM SCT150
     FM310300 05008KT P6SM SKC
      AMD LTD TO CLD VIS AND WIND=

USA.gov is the U.S. government's official web portal to all federal, state and local government web resources and services.